sensor_id;sensor_type;location;lat;lon;timestamp;pressure;altitude;pressure_sealevel;temperature;humidity
9325;BME280;4701;51.566;6.776;2023-10-19T05:13:54;98958.94;;;12.86;100.00
9325;BME280;4701;51.566;6.776;2023-10-19T05:18:55;98960.72;;;12.91;100.00
9325;BME280;4701;51.566;6.776;2023-10-19T05:23:57;98967.13;;;12.95;100.00
9325;BME280;4701;51.566;6.776;2023-10-19T05:29:02;98972.44;;;13.00;100.00
9325;BME280;4701;51.566;6.776;2023-10-19T05:34:04;98980.94;;;13.07;100.00
9325;BME280;4701;51.566;6.776;2023-10-19T05:39:05;98977.09;;;13.08;100.00
9325;BME280;4701;51.566;6.776;2023-10-19T05:44:09;98969.00;;;13.12;100.00
9325;BME280;4701;51.566;6.776;2023-10-19T05:49:11;98974.34;;;13.17;100.00
9325;BME280;4701;51.566;6.776;2023-10-19T05:54:13;98970.94;;;13.20;100.00
9325;BME280;4701;51.566;6.776;2023-10-19T05:59:16;98982.88;;;13.24;100.00
9325;BME280;4701;51.566;6.776;2023-10-19T06:04:17;98983.34;;;13.26;100.00
9325;BME280;4701;51.566;6.776;2023-10-19T06:09:21;98996.22;;;13.25;100.00
9325;BME280;4701;51.566;6.776;2023-10-19T06:14:31;98999.41;;;13.27;100.00
9325;BME280;4701;51.566;6.776;2023-10-19T06:19:32;99008.41;;;13.28;100.00
9325;BME280;4701;51.566;6.776;2023-10-19T06:24:34;99006.16;;;13.30;100.00
9325;BME280;4701;51.566;6.776;2023-10-19T06:29:39;99009.72;;;13.31;100.00
9325;BME280;4701;51.566;6.776;2023-10-19T06:34:40;99011.66;;;13.30;99.93
9325;BME280;4701;51.566;6.776;2023-10-19T06:39:42;99016.31;;;13.30;99.16
9325;BME280;4701;51.566;6.776;2023-10-19T06:44:45;99021.47;;;13.31;99.40
9325;BME280;4701;51.566;6.776;2023-10-19T06:49:46;99017.28;;;13.34;98.95
9325;BME280;4701;51.566;6.776;2023-10-19T06:54:48;99018.41;;;13.33;98.62
9325;BME280;4701;51.566;6.776;2023-10-19T06:59:51;99022.88;;;13.37;98.67
9325;BME280;4701;51.566;6.776;2023-10-19T07:04:53;99029.16;;;13.38;98.77
9325;BME280;4701;51.566;6.776;2023-10-19T07:09:55;99036.72;;;13.41;98.63
9325;BME280;4701;51.566;6.776;2023-10-19T07:14:59;99030.25;;;13.45;99.26
9325;BME280;4701;51.566;6.776;2023-10-19T07:20:01;99032.69;;;13.47;99.53
9325;BME280;4701;51.566;6.776;2023-10-19T07:25:06;99037.50;;;13.50;99.89
9325;BME280;4701;51.566;6.776;2023-10-19T07:30:11;99036.69;;;13.49;99.72
9325;BME280;4701;51.566;6.776;2023-10-19T07:35:15;99043.91;;;13.54;99.52
9325;BME280;4701;51.566;6.776;2023-10-19T07:40:17;99047.94;;;13.56;99.92
9325;BME280;4701;51.566;6.776;2023-10-19T07:45:20;99044.09;;;13.57;99.69
9325;BME280;4701;51.566;6.776;2023-10-19T07:50:22;99043.28;;;13.57;99.50
9325;BME280;4701;51.566;6.776;2023-10-19T07:55:23;99052.44;;;13.61;99.49
9325;BME280;4701;51.566;6.776;2023-10-19T08:00:27;99051.31;;;13.62;99.69
9325;BME280;4701;51.566;6.776;2023-10-19T08:05:29;99047.44;;;13.63;99.29
9325;BME280;4701;51.566;6.776;2023-10-19T08:10:31;99033.44;;;13.64;98.88
9325;BME280;4701;51.566;6.776;2023-10-19T08:15:36;99039.38;;;13.67;98.60
9325;BME280;4701;51.566;6.776;2023-10-19T08:20:37;99046.91;;;13.70;98.45
9325;BME280;4701;51.566;6.776;2023-10-19T08:25:39;99042.72;;;13.72;98.60
9325;BME280;4701;51.566;6.776;2023-10-19T08:30:42;99036.13;;;13.73;98.27
9325;BME280;4701;51.566;6.776;2023-10-19T08:35:45;99035.47;;;13.76;98.30
9325;BME280;4701;51.566;6.776;2023-10-19T08:40:47;99041.09;;;13.80;98.21
9325;BME280;4701;51.566;6.776;2023-10-19T08:45:53;99040.44;;;13.83;98.44
9325;BME280;4701;51.566;6.776;2023-10-19T08:50:55;99040.25;;;13.88;98.38
9325;BME280;4701;51.566;6.776;2023-10-19T08:55:58;99022.69;;;13.89;98.76
9325;BME280;4701;51.566;6.776;2023-10-19T09:01:02;99024.78;;;13.92;98.24
9325;BME280;4701;51.566;6.776;2023-10-19T09:06:11;99029.94;;;13.93;98.32
9325;BME280;4701;51.566;6.776;2023-10-19T09:11:15;99017.47;;;13.96;97.88
9325;BME280;4701;51.566;6.776;2023-10-19T09:16:22;99007.81;;;13.98;97.91
9325;BME280;4701;51.566;6.776;2023-10-19T09:21:23;99008.78;;;14.02;97.97
9325;BME280;4701;51.566;6.776;2023-10-19T09:26:25;99008.09;;;14.06;97.84
9325;BME280;4701;51.566;6.776;2023-10-19T09:31:28;99012.91;;;14.09;97.92
9325;BME280;4701;51.566;6.776;2023-10-19T09:36:31;99008.38;;;14.13;98.16
9325;BME280;4701;51.566;6.776;2023-10-19T09:41:33;99004.31;;;14.19;98.45
9325;BME280;4701;51.566;6.776;2023-10-19T09:46:37;99007.66;;;14.24;99.18
9325;BME280;4701;51.566;6.776;2023-10-19T09:51:41;99009.06;;;14.30;99.39
9325;BME280;4701;51.566;6.776;2023-10-19T09:56:47;99010.81;;;14.35;99.55
9325;BME280;4701;51.566;6.776;2023-10-19T17:03:31;98692.47;;;14.94;100.00
9325;BME280;4701;51.566;6.776;2023-10-19T17:08:32;98698.06;;;14.97;100.00
9325;BME280;4701;51.566;6.776;2023-10-19T17:13:34;98695.09;;;15.02;100.00
9325;BME280;4701;51.566;6.776;2023-10-19T17:18:37;98693.63;;;15.05;100.00
9325;BME280;4701;51.566;6.776;2023-10-19T17:23:40;98698.84;;;15.10;100.00
9325;BME280;4701;51.566;6.776;2023-10-19T17:28:41;98686.41;;;15.12;100.00
9325;BME280;4701;51.566;6.776;2023-10-19T17:33:44;98678.59;;;15.14;100.00
9325;BME280;4701;51.566;6.776;2023-10-19T17:38:47;98679.06;;;15.17;100.00
9325;BME280;4701;51.566;6.776;2023-10-19T17:43:48;98674.38;;;15.17;100.00
9325;BME280;4701;51.566;6.776;2023-10-19T17:48:51;98670.03;;;15.16;100.00
9325;BME280;4701;51.566;6.776;2023-10-19T17:53:54;98666.47;;;15.15;100.00
9325;BME280;4701;51.566;6.776;2023-10-19T17:58:56;98649.59;;;15.13;100.00
9325;BME280;4701;51.566;6.776;2023-10-19T18:03:59;98655.41;;;15.12;99.72
9325;BME280;4701;51.566;6.776;2023-10-19T18:09:03;98660.44;;;15.10;100.00
9325;BME280;4701;51.566;6.776;2023-10-19T18:14:05;98649.81;;;15.08;99.64
9325;BME280;4701;51.566;6.776;2023-10-19T18:19:11;98658.38;;;15.07;99.61
9325;BME280;4701;51.566;6.776;2023-10-19T18:24:13;98670.88;;;15.04;99.71
9325;BME280;4701;51.566;6.776;2023-10-19T18:29:14;98668.47;;;15.03;99.49
9325;BME280;4701;51.566;6.776;2023-10-19T18:34:17;98639.75;;;15.00;99.44
9325;BME280;4701;51.566;6.776;2023-10-19T18:39:21;98637.38;;;14.99;99.71
9325;BME280;4701;51.566;6.776;2023-10-19T18:44:23;98643.56;;;14.96;99.33
9325;BME280;4701;51.566;6.776;2023-10-19T18:49:26;98624.69;;;14.94;99.31
9325;BME280;4701;51.566;6.776;2023-10-19T18:54:27;98626.19;;;14.92;99.39
